sensor_id;sensor_type;location;lat;lon;timestamp;P1;durP1;ratioP1;P2;durP2;ratioP2
53036;SDS011;38924;52.134;4.666;2022-10-30T00:02:12;67.90;;;62.70;;
53036;SDS011;38924;52.134;4.666;2022-10-30T00:04:37;64.65;;;59.08;;
53036;SDS011;38924;52.134;4.666;2022-10-30T00:07:03;63.90;;;58.08;;
53036;SDS011;38924;52.134;4.666;2022-10-30T00:09:29;63.55;;;58.65;;
53036;SDS011;38924;52.134;4.666;2022-10-30T00:11:54;64.72;;;58.60;;
53036;SDS011;38924;52.134;4.666;2022-10-30T00:14:20;60.78;;;55.63;;
53036;SDS011;38924;52.134;4.666;2022-10-30T00:16:46;66.30;;;61.15;;
53036;SDS011;38924;52.134;4.666;2022-10-30T00:19:11;66.50;;;61.33;;
53036;SDS011;38924;52.134;4.666;2022-10-30T00:21:37;59.65;;;54.75;;
53036;SDS011;38924;52.134;4.666;2022-10-30T00:24:03;68.70;;;63.15;;
53036;SDS011;38924;52.134;4.666;2022-10-30T00:26:28;66.05;;;60.35;;
53036;SDS011;38924;52.134;4.666;2022-10-30T00:28:56;61.78;;;56.78;;
53036;SDS011;38924;52.134;4.666;2022-10-30T00:31:22;62.97;;;57.55;;
53036;SDS011;38924;52.134;4.666;2022-10-30T00:33:51;63.25;;;57.50;;
53036;SDS011;38924;52.134;4.666;2022-10-30T00:36:17;66.63;;;61.22;;
53036;SDS011;38924;52.134;4.666;2022-10-30T00:38:43;59.65;;;54.90;;
53036;SDS011;38924;52.134;4.666;2022-10-30T00:41:17;64.22;;;59.50;;
53036;SDS011;38924;52.134;4.666;2022-10-30T00:43:43;67.00;;;61.50;;
53036;SDS011;38924;52.134;4.666;2022-10-30T00:46:28;60.53;;;55.67;;
53036;SDS011;38924;52.134;4.666;2022-10-30T00:48:57;62.42;;;56.83;;
53036;SDS011;38924;52.134;4.666;2022-10-30T00:51:22;65.88;;;60.70;;
53036;SDS011;38924;52.134;4.666;2022-10-30T00:53:49;66.60;;;61.50;;
53036;SDS011;38924;52.134;4.666;2022-10-30T00:56:16;61.80;;;56.92;;
53036;SDS011;38924;52.134;4.666;2022-10-30T00:58:48;70.82;;;64.93;;
53036;SDS011;38924;52.134;4.666;2022-10-30T01:01:18;59.78;;;54.42;;
53036;SDS011;38924;52.134;4.666;2022-10-30T01:03:45;60.97;;;56.08;;
53036;SDS011;38924;52.134;4.666;2022-10-30T01:06:13;66.25;;;59.90;;
53036;SDS011;38924;52.134;4.666;2022-10-30T01:08:40;64.25;;;58.95;;
53036;SDS011;38924;52.134;4.666;2022-10-30T01:11:07;60.20;;;54.28;;
53036;SDS011;38924;52.134;4.666;2022-10-30T01:13:33;66.25;;;61.33;;
53036;SDS011;38924;52.134;4.666;2022-10-30T01:16:06;62.17;;;56.85;;
53036;SDS011;38924;52.134;4.666;2022-10-30T01:23:55;61.28;;;55.78;;
53036;SDS011;38924;52.134;4.666;2022-10-30T01:31:59;57.25;;;52.10;;
53036;SDS011;38924;52.134;4.666;2022-10-30T01:34:36;63.92;;;58.45;;
53036;SDS011;38924;52.134;4.666;2022-10-30T01:37:07;61.95;;;56.42;;
53036;SDS011;38924;52.134;4.666;2022-10-30T01:39:36;61.92;;;56.80;;
53036;SDS011;38924;52.134;4.666;2022-10-30T01:44:46;62.92;;;57.17;;
53036;SDS011;38924;52.134;4.666;2022-10-30T01:52:34;63.85;;;58.38;;
53036;SDS011;38924;52.134;4.666;2022-10-30T01:55:51;55.42;;;51.08;;
53036;SDS011;38924;52.134;4.666;2022-10-30T02:00:16;67.22;;;61.65;;
53036;SDS011;38924;52.134;4.666;2022-10-30T02:02:46;61.40;;;55.97;;
53036;SDS011;38924;52.134;4.666;2022-10-30T02:05:17;65.32;;;59.17;;
53036;SDS011;38924;52.134;4.666;2022-10-30T02:07:44;63.80;;;58.00;;
53036;SDS011;38924;52.134;4.666;2022-10-30T02:10:11;70.15;;;64.22;;
53036;SDS011;38924;52.134;4.666;2022-10-30T02:12:36;64.70;;;58.95;;
53036;SDS011;38924;52.134;4.666;2022-10-30T02:15:02;67.85;;;62.28;;
53036;SDS011;38924;52.134;4.666;2022-10-30T02:17:28;66.50;;;61.45;;
53036;SDS011;38924;52.134;4.666;2022-10-30T02:19:54;67.28;;;62.03;;
53036;SDS011;38924;52.134;4.666;2022-10-30T02:22:22;62.17;;;56.78;;
53036;SDS011;38924;52.134;4.666;2022-10-30T02:24:49;69.60;;;64.10;;
53036;SDS011;38924;52.134;4.666;2022-10-30T02:27:15;62.17;;;56.45;;
53036;SDS011;38924;52.134;4.666;2022-10-30T02:29:41;63.17;;;58.13;;
53036;SDS011;38924;52.134;4.666;2022-10-30T02:32:06;64.78;;;59.60;;
53036;SDS011;38924;52.134;4.666;2022-10-30T02:34:33;59.75;;;54.70;;
53036;SDS011;38924;52.134;4.666;2022-10-30T02:36:59;68.25;;;62.47;;
53036;SDS011;38924;52.134;4.666;2022-10-30T02:39:25;62.90;;;57.63;;
53036;SDS011;38924;52.134;4.666;2022-10-30T02:41:50;66.43;;;60.53;;
53036;SDS011;38924;52.134;4.666;2022-10-30T02:44:19;67.63;;;61.85;;
53036;SDS011;38924;52.134;4.666;2022-10-30T02:46:46;62.03;;;56.47;;
53036;SDS011;38924;52.134;4.666;2022-10-30T02:49:12;58.08;;;53.30;;
53036;SDS011;38924;52.134;4.666;2022-10-30T02:51:37;62.47;;;56.55;;
53036;SDS011;38924;52.134;4.666;2022-10-30T02:54:03;61.95;;;56.03;;
53036;SDS011;38924;52.134;4.666;2022-10-30T02:56:29;63.72;;;58.15;;
53036;SDS011;38924;52.134;4.666;2022-10-30T02:58:55;60.60;;;55.15;;
53036;SDS011;38924;52.134;4.666;2022-10-30T03:01:21;62.55;;;57.22;;
53036;SDS011;38924;52.134;4.666;2022-10-30T03:03:50;63.05;;;57.85;;
53036;SDS011;38924;52.134;4.666;2022-10-30T03:06:16;59.50;;;53.45;;
53036;SDS011;38924;52.134;4.666;2022-10-30T03:08:42;61.58;;;55.67;;
53036;SDS011;38924;52.134;4.666;2022-10-30T03:11:11;64.50;;;58.92;;
53036;SDS011;38924;52.134;4.666;2022-10-30T03:13:38;60.10;;;54.75;;
53036;SDS011;38924;52.134;4.666;2022-10-30T03:16:06;67.35;;;61.55;;
53036;SDS011;38924;52.134;4.666;2022-10-30T03:18:32;64.03;;;58.53;;
53036;SDS011;38924;52.134;4.666;2022-10-30T03:21:04;65.32;;;59.20;;
53036;SDS011;38924;52.134;4.666;2022-10-30T03:23:30;70.68;;;63.72;;
53036;SDS011;38924;52.134;4.666;2022-10-30T03:25:56;63.00;;;57.97;;
53036;SDS011;38924;52.134;4.666;2022-10-30T03:28:24;62.92;;;57.95;;
53036;SDS011;38924;52.134;4.666;2022-10-30T03:30:51;64.60;;;59.10;;
53036;SDS011;38924;52.134;4.666;2022-10-30T03:33:22;63.85;;;58.30;;
53036;SDS011;38924;52.134;4.666;2022-10-30T03:35:47;63.22;;;57.17;;
53036;SDS011;38924;52.134;4.666;2022-10-30T03:38:13;66.45;;;60.35;;
53036;SDS011;38924;52.134;4.666;2022-10-30T03:40:45;69.28;;;63.40;;
53036;SDS011;38924;52.134;4.666;2022-10-30T03:43:10;62.75;;;56.70;;
53036;SDS011;38924;52.134;4.666;2022-10-30T03:45:36;73.38;;;66.30;;
53036;SDS011;38924;52.134;4.666;2022-10-30T03:48:04;61.67;;;56.88;;
53036;SDS011;38924;52.134;4.666;2022-10-30T03:50:33;63.80;;;58.55;;
53036;SDS011;38924;52.134;4.666;2022-10-30T03:52:58;61.13;;;55.90;;
53036;SDS011;38924;52.134;4.666;2022-10-30T03:55:24;60.92;;;55.67;;
53036;SDS011;38924;52.134;4.666;2022-10-30T03:57:50;70.50;;;64.82;;
53036;SDS011;38924;52.134;4.666;2022-10-30T04:00:17;62.40;;;56.20;;
53036;SDS011;38924;52.134;4.666;2022-10-30T04:02:55;60.85;;;54.90;;
53036;SDS011;38924;52.134;4.666;2022-10-30T04:05:23;65.13;;;58.28;;
53036;SDS011;38924;52.134;4.666;2022-10-30T04:07:58;66.35;;;60.45;;
53036;SDS011;38924;52.134;4.666;2022-10-30T04:10:25;66.03;;;60.72;;
53036;SDS011;38924;52.134;4.666;2022-10-30T04:12:56;61.03;;;55.83;;
53036;SDS011;38924;52.134;4.666;2022-10-30T04:15:23;64.53;;;58.45;;
53036;SDS011;38924;52.134;4.666;2022-10-30T04:17:49;65.15;;;59.17;;
53036;SDS011;38924;52.134;4.666;2022-10-30T04:20:19;66.57;;;60.15;;
53036;SDS011;38924;52.134;4.666;2022-10-30T04:22:45;65.55;;;59.03;;
53036;SDS011;38924;52.134;4.666;2022-10-30T04:25:16;60.60;;;55.30;;
53036;SDS011;38924;52.134;4.666;2022-10-30T04:27:42;62.20;;;56.67;;
53036;SDS011;38924;52.134;4.666;2022-10-30T04:30:09;66.95;;;60.78;;
53036;SDS011;38924;52.134;4.666;2022-10-30T04:32:35;67.30;;;61.15;;
53036;SDS011;38924;52.134;4.666;2022-10-30T04:35:01;67.70;;;62.10;;
53036;SDS011;38924;52.134;4.666;2022-10-30T04:37:33;65.82;;;60.40;;
53036;SDS011;38924;52.134;4.666;2022-10-30T04:39:58;68.45;;;62.20;;
53036;SDS011;38924;52.134;4.666;2022-10-30T04:42:26;66.78;;;60.85;;
53036;SDS011;38924;52.134;4.666;2022-10-30T04:44:52;61.08;;;55.05;;
53036;SDS011;38924;52.134;4.666;2022-10-30T04:47:18;65.18;;;58.85;;
53036;SDS011;38924;52.134;4.666;2022-10-30T04:49:44;67.40;;;60.88;;
53036;SDS011;38924;52.134;4.666;2022-10-30T04:52:10;62.42;;;56.75;;
53036;SDS011;38924;52.134;4.666;2022-10-30T04:54:36;64.70;;;58.75;;
53036;SDS011;38924;52.134;4.666;2022-10-30T04:57:02;59.00;;;53.55;;
53036;SDS011;38924;52.134;4.666;2022-10-30T04:59:28;61.00;;;55.47;;
53036;SDS011;38924;52.134;4.666;2022-10-30T05:01:55;64.05;;;57.97;;
53036;SDS011;38924;52.134;4.666;2022-10-30T05:04:23;64.10;;;58.55;;
53036;SDS011;38924;52.134;4.666;2022-10-30T05:06:48;62.90;;;57.67;;
53036;SDS011;38924;52.134;4.666;2022-10-30T05:09:15;61.55;;;55.92;;
53036;SDS011;38924;52.134;4.666;2022-10-30T05:11:47;62.17;;;56.35;;
53036;SDS011;38924;52.134;4.666;2022-10-30T05:14:13;64.22;;;58.10;;
53036;SDS011;38924;52.134;4.666;2022-10-30T05:16:38;64.93;;;59.05;;
53036;SDS011;38924;52.134;4.666;2022-10-30T05:19:05;61.03;;;55.38;;
53036;SDS011;38924;52.134;4.666;2022-10-30T05:21:32;65.90;;;60.67;;
53036;SDS011;38924;52.134;4.666;2022-10-30T05:23:58;62.53;;;56.83;;
53036;SDS011;38924;52.134;4.666;2022-10-30T05:26:24;58.35;;;53.10;;
53036;SDS011;38924;52.134;4.666;2022-10-30T05:28:51;61.55;;;55.80;;
53036;SDS011;38924;52.134;4.666;2022-10-30T05:31:20;61.15;;;55.78;;
53036;SDS011;38924;52.134;4.666;2022-10-30T05:34:09;63.90;;;57.58;;
53036;SDS011;38924;52.134;4.666;2022-10-30T05:36:37;58.13;;;52.50;;
53036;SDS011;38924;52.134;4.666;2022-10-30T05:39:03;60.17;;;55.10;;
53036;SDS011;38924;52.134;4.666;2022-10-30T05:41:33;59.25;;;53.78;;
53036;SDS011;38924;52.134;4.666;2022-10-30T05:43:58;63.70;;;57.67;;
53036;SDS011;38924;52.134;4.666;2022-10-30T05:46:25;64.13;;;58.28;;
53036;SDS011;38924;52.134;4.666;2022-10-30T05:48:52;57.25;;;52.10;;
53036;SDS011;38924;52.134;4.666;2022-10-30T05:51:18;58.88;;;53.22;;
53036;SDS011;38924;52.134;4.666;2022-10-30T05:53:50;56.08;;;51.13;;
53036;SDS011;38924;52.134;4.666;2022-10-30T05:56:17;57.90;;;52.97;;
53036;SDS011;38924;52.134;4.666;2022-10-30T05:58:43;61.22;;;55.55;;
53036;SDS011;38924;52.134;4.666;2022-10-30T06:01:08;62.42;;;54.50;;
53036;SDS011;38924;52.134;4.666;2022-10-30T06:03:40;63.15;;;57.28;;
53036;SDS011;38924;52.134;4.666;2022-10-30T06:06:06;58.25;;;52.70;;
53036;SDS011;38924;52.134;4.666;2022-10-30T06:08:32;59.67;;;54.67;;
53036;SDS011;38924;52.134;4.666;2022-10-30T06:11:03;59.53;;;54.25;;
53036;SDS011;38924;52.134;4.666;2022-10-30T06:13:40;60.72;;;55.08;;
53036;SDS011;38924;52.134;4.666;2022-10-30T06:16:09;59.65;;;53.78;;
53036;SDS011;38924;52.134;4.666;2022-10-30T06:18:53;55.70;;;50.88;;
53036;SDS011;38924;52.134;4.666;2022-10-30T06:21:19;55.80;;;50.72;;
53036;SDS011;38924;52.134;4.666;2022-10-30T06:24:08;56.55;;;51.45;;
53036;SDS011;38924;52.134;4.666;2022-10-30T06:26:58;56.78;;;51.50;;
53036;SDS011;38924;52.134;4.666;2022-10-30T06:29:23;60.35;;;54.45;;
53036;SDS011;38924;52.134;4.666;2022-10-30T06:31:49;64.30;;;56.72;;
53036;SDS011;38924;52.134;4.666;2022-10-30T06:34:15;61.42;;;56.15;;
53036;SDS011;38924;52.134;4.666;2022-10-30T06:36:42;60.92;;;55.83;;
53036;SDS011;38924;52.134;4.666;2022-10-30T06:39:08;66.32;;;59.92;;
53036;SDS011;38924;52.134;4.666;2022-10-30T06:42:04;60.30;;;54.85;;
53036;SDS011;38924;52.134;4.666;2022-10-30T06:44:43;56.58;;;50.63;;
53036;SDS011;38924;52.134;4.666;2022-10-30T06:47:09;57.30;;;52.10;;
53036;SDS011;38924;52.134;4.666;2022-10-30T06:49:35;60.15;;;55.20;;
53036;SDS011;38924;52.134;4.666;2022-10-30T06:52:01;67.18;;;60.95;;
53036;SDS011;38924;52.134;4.666;2022-10-30T06:54:26;59.70;;;54.35;;
53036;SDS011;38924;52.134;4.666;2022-10-30T06:57:15;61.10;;;55.55;;
53036;SDS011;38924;52.134;4.666;2022-10-30T06:59:58;55.08;;;49.63;;
53036;SDS011;38924;52.134;4.666;2022-10-30T07:02:29;63.45;;;57.78;;
53036;SDS011;38924;52.134;4.666;2022-10-30T07:04:59;63.00;;;57.53;;
53036;SDS011;38924;52.134;4.666;2022-10-30T07:07:24;62.50;;;56.67;;
53036;SDS011;38924;52.134;4.666;2022-10-30T07:09:50;64.68;;;58.03;;
53036;SDS011;38924;52.134;4.666;2022-10-30T07:12:20;65.25;;;59.67;;
53036;SDS011;38924;52.134;4.666;2022-10-30T07:14:58;64.30;;;58.03;;
53036;SDS011;38924;52.134;4.666;2022-10-30T07:17:30;62.40;;;57.08;;
53036;SDS011;38924;52.134;4.666;2022-10-30T07:20:00;62.85;;;57.10;;
53036;SDS011;38924;52.134;4.666;2022-10-30T07:22:26;62.25;;;57.17;;
53036;SDS011;38924;52.134;4.666;2022-10-30T07:24:53;64.85;;;59.05;;
53036;SDS011;38924;52.134;4.666;2022-10-30T07:27:46;57.08;;;52.05;;
53036;SDS011;38924;52.134;4.666;2022-10-30T07:30:30;55.33;;;50.67;;
53036;SDS011;38924;52.134;4.666;2022-10-30T07:33:16;58.88;;;53.50;;
53036;SDS011;38924;52.134;4.666;2022-10-30T07:35:53;61.75;;;55.95;;
53036;SDS011;38924;52.134;4.666;2022-10-30T07:38:41;61.85;;;55.80;;
53036;SDS011;38924;52.134;4.666;2022-10-30T07:41:21;56.85;;;51.67;;
53036;SDS011;38924;52.134;4.666;2022-10-30T07:43:53;55.30;;;50.33;;
53036;SDS011;38924;52.134;4.666;2022-10-30T07:46:38;56.60;;;51.38;;
53036;SDS011;38924;52.134;4.666;2022-10-30T07:49:20;64.47;;;57.78;;
53036;SDS011;38924;52.134;4.666;2022-10-30T07:51:53;74.93;;;67.30;;
53036;SDS011;38924;52.134;4.666;2022-10-30T07:54:19;69.68;;;63.15;;
53036;SDS011;38924;52.134;4.666;2022-10-30T07:56:45;63.70;;;57.90;;
53036;SDS011;38924;52.134;4.666;2022-10-30T07:59:17;69.07;;;62.67;;
53036;SDS011;38924;52.134;4.666;2022-10-30T08:02:01;66.03;;;60.13;;
53036;SDS011;38924;52.134;4.666;2022-10-30T08:04:38;63.53;;;57.47;;
53036;SDS011;38924;52.134;4.666;2022-10-30T08:07:18;71.70;;;65.75;;
53036;SDS011;38924;52.134;4.666;2022-10-30T08:09:44;71.80;;;65.75;;
53036;SDS011;38924;52.134;4.666;2022-10-30T08:12:10;71.35;;;65.93;;
53036;SDS011;38924;52.134;4.666;2022-10-30T08:14:35;73.05;;;66.95;;
53036;SDS011;38924;52.134;4.666;2022-10-30T08:17:01;70.07;;;64.45;;
53036;SDS011;38924;52.134;4.666;2022-10-30T08:19:30;68.93;;;62.95;;
53036;SDS011;38924;52.134;4.666;2022-10-30T08:21:57;62.67;;;57.17;;
53036;SDS011;38924;52.134;4.666;2022-10-30T08:24:23;68.28;;;62.97;;
53036;SDS011;38924;52.134;4.666;2022-10-30T08:26:51;64.93;;;59.75;;
53036;SDS011;38924;52.134;4.666;2022-10-30T08:29:17;72.55;;;66.85;;
53036;SDS011;38924;52.134;4.666;2022-10-30T08:31:43;60.80;;;55.85;;
53036;SDS011;38924;52.134;4.666;2022-10-30T08:34:31;61.58;;;56.35;;
53036;SDS011;38924;52.134;4.666;2022-10-30T08:37:03;64.40;;;58.30;;
53036;SDS011;38924;52.134;4.666;2022-10-30T08:39:28;69.43;;;63.63;;
53036;SDS011;38924;52.134;4.666;2022-10-30T08:41:55;70.82;;;65.28;;
53036;SDS011;38924;52.134;4.666;2022-10-30T08:44:21;69.22;;;63.72;;
53036;SDS011;38924;52.134;4.666;2022-10-30T08:47:05;66.05;;;60.60;;
53036;SDS011;38924;52.134;4.666;2022-10-30T08:49:31;67.45;;;62.33;;
53036;SDS011;38924;52.134;4.666;2022-10-30T08:51:59;80.55;;;74.55;;
53036;SDS011;38924;52.134;4.666;2022-10-30T08:54:24;88.05;;;81.35;;
53036;SDS011;38924;52.134;4.666;2022-10-30T08:56:50;101.85;;;94.05;;
53036;SDS011;38924;52.134;4.666;2022-10-30T08:59:16;90.07;;;83.78;;
53036;SDS011;38924;52.134;4.666;2022-10-30T09:01:41;98.60;;;91.78;;
53036;SDS011;38924;52.134;4.666;2022-10-30T09:04:19;108.95;;;101.13;;
53036;SDS011;38924;52.134;4.666;2022-10-30T09:06:54;106.25;;;98.50;;
53036;SDS011;38924;52.134;4.666;2022-10-30T09:09:37;82.43;;;75.72;;
53036;SDS011;38924;52.134;4.666;2022-10-30T09:12:04;96.57;;;89.45;;
53036;SDS011;38924;52.134;4.666;2022-10-30T09:14:37;99.40;;;92.18;;
53036;SDS011;38924;52.134;4.666;2022-10-30T09:17:02;85.80;;;79.47;;
53036;SDS011;38924;52.134;4.666;2022-10-30T09:19:29;79.65;;;73.22;;
53036;SDS011;38924;52.134;4.666;2022-10-30T09:21:57;102.97;;;95.75;;
53036;SDS011;38924;52.134;4.666;2022-10-30T09:24:23;106.72;;;98.82;;
53036;SDS011;38924;52.134;4.666;2022-10-30T09:30:20;78.05;;;71.45;;
53036;SDS011;38924;52.134;4.666;2022-10-30T09:32:57;111.28;;;103.15;;
53036;SDS011;38924;52.134;4.666;2022-10-30T09:35:33;100.65;;;93.07;;
53036;SDS011;38924;52.134;4.666;2022-10-30T09:38:01;129.93;;;121.13;;
53036;SDS011;38924;52.134;4.666;2022-10-30T09:40:33;137.18;;;127.75;;
53036;SDS011;38924;52.134;4.666;2022-10-30T09:43:07;109.53;;;100.90;;
53036;SDS011;38924;52.134;4.666;2022-10-30T09:51:09;137.02;;;127.60;;
53036;SDS011;38924;52.134;4.666;2022-10-30T09:56:30;147.68;;;137.18;;
53036;SDS011;38924;52.134;4.666;2022-10-30T10:04:23;124.47;;;115.85;;
53036;SDS011;38924;52.134;4.666;2022-10-30T10:09:52;170.75;;;158.38;;
53036;SDS011;38924;52.134;4.666;2022-10-30T10:12:43;139.30;;;129.30;;
53036;SDS011;38924;52.134;4.666;2022-10-30T10:15:20;168.68;;;157.57;;
53036;SDS011;38924;52.134;4.666;2022-10-30T10:17:49;165.18;;;154.35;;
53036;SDS011;38924;52.134;4.666;2022-10-30T10:20:25;166.88;;;155.75;;
53036;SDS011;38924;52.134;4.666;2022-10-30T10:22:52;165.80;;;154.05;;
53036;SDS011;38924;52.134;4.666;2022-10-30T10:25:19;174.18;;;162.35;;
53036;SDS011;38924;52.134;4.666;2022-10-30T10:30:30;180.53;;;168.87;;
53036;SDS011;38924;52.134;4.666;2022-10-30T10:33:10;186.48;;;173.27;;
53036;SDS011;38924;52.134;4.666;2022-10-30T10:38:29;176.33;;;164.30;;
53036;SDS011;38924;52.134;4.666;2022-10-30T10:41:02;206.18;;;192.40;;
53036;SDS011;38924;52.134;4.666;2022-10-30T10:46:16;193.98;;;181.27;;
53036;SDS011;38924;52.134;4.666;2022-10-30T10:48:56;186.98;;;174.02;;
53036;SDS011;38924;52.134;4.666;2022-10-30T10:51:44;202.40;;;188.43;;
53036;SDS011;38924;52.134;4.666;2022-10-30T10:56:38;194.75;;;182.25;;
53036;SDS011;38924;52.134;4.666;2022-10-30T10:59:48;191.35;;;178.32;;
53036;SDS011;38924;52.134;4.666;2022-10-30T11:06:54;185.60;;;173.40;;
53036;SDS011;38924;52.134;4.666;2022-10-30T11:09:23;186.15;;;173.20;;
53036;SDS011;38924;52.134;4.666;2022-10-30T11:11:52;197.85;;;184.32;;
53036;SDS011;38924;52.134;4.666;2022-10-30T11:14:22;209.80;;;196.02;;
53036;SDS011;38924;52.134;4.666;2022-10-30T11:16:50;184.85;;;171.63;;
53036;SDS011;38924;52.134;4.666;2022-10-30T11:19:18;186.63;;;174.18;;
53036;SDS011;38924;52.134;4.666;2022-10-30T11:21:45;192.70;;;179.85;;
53036;SDS011;38924;52.134;4.666;2022-10-30T11:24:25;188.05;;;175.07;;
53036;SDS011;38924;52.134;4.666;2022-10-30T11:26:52;194.10;;;181.52;;
53036;SDS011;38924;52.134;4.666;2022-10-30T11:29:20;198.32;;;185.32;;
53036;SDS011;38924;52.134;4.666;2022-10-30T11:31:57;181.73;;;168.38;;
53036;SDS011;38924;52.134;4.666;2022-10-30T11:34:37;207.88;;;192.15;;
53036;SDS011;38924;52.134;4.666;2022-10-30T11:37:03;183.00;;;170.80;;
53036;SDS011;38924;52.134;4.666;2022-10-30T11:39:32;184.38;;;172.35;;
53036;SDS011;38924;52.134;4.666;2022-10-30T11:44:26;199.05;;;185.70;;
53036;SDS011;38924;52.134;4.666;2022-10-30T11:46:52;167.20;;;156.10;;
53036;SDS011;38924;52.134;4.666;2022-10-30T11:49:31;172.93;;;161.20;;
53036;SDS011;38924;52.134;4.666;2022-10-30T11:51:59;139.10;;;129.70;;
53036;SDS011;38924;52.134;4.666;2022-10-30T11:54:24;148.55;;;138.02;;
53036;SDS011;38924;52.134;4.666;2022-10-30T11:56:51;159.43;;;148.68;;
53036;SDS011;38924;52.134;4.666;2022-10-30T11:59:19;137.90;;;128.10;;
53036;SDS011;38924;52.134;4.666;2022-10-30T12:01:59;207.52;;;190.23;;
53036;SDS011;38924;52.134;4.666;2022-10-30T12:04:25;168.82;;;155.75;;
53036;SDS011;38924;52.134;4.666;2022-10-30T12:07:08;151.32;;;140.45;;
53036;SDS011;38924;52.134;4.666;2022-10-30T12:09:44;155.32;;;144.50;;
53036;SDS011;38924;52.134;4.666;2022-10-30T12:12:11;138.85;;;129.48;;
53036;SDS011;38924;52.134;4.666;2022-10-30T12:14:40;136.07;;;126.82;;
53036;SDS011;38924;52.134;4.666;2022-10-30T12:17:08;140.30;;;130.60;;
53036;SDS011;38924;52.134;4.666;2022-10-30T12:19:38;129.80;;;120.18;;
53036;SDS011;38924;52.134;4.666;2022-10-30T12:22:09;130.90;;;121.20;;
53036;SDS011;38924;52.134;4.666;2022-10-30T12:24:35;139.95;;;130.15;;
53036;SDS011;38924;52.134;4.666;2022-10-30T12:27:04;179.38;;;165.00;;
53036;SDS011;38924;52.134;4.666;2022-10-30T12:29:38;146.07;;;135.20;;
53036;SDS011;38924;52.134;4.666;2022-10-30T12:32:06;133.55;;;124.25;;
53036;SDS011;38924;52.134;4.666;2022-10-30T12:40:15;121.95;;;113.90;;
53036;SDS011;38924;52.134;4.666;2022-10-30T12:42:34;135.60;;;126.55;;
53036;SDS011;38924;52.134;4.666;2022-10-30T12:45:15;212.25;;;192.13;;
53036;SDS011;38924;52.134;4.666;2022-10-30T12:47:44;150.48;;;138.20;;
53036;SDS011;38924;52.134;4.666;2022-10-30T12:52:54;155.45;;;144.80;;
53036;SDS011;38924;52.134;4.666;2022-10-30T12:55:26;135.15;;;125.60;;
53036;SDS011;38924;52.134;4.666;2022-10-30T12:57:58;123.90;;;115.57;;
53036;SDS011;38924;52.134;4.666;2022-10-30T13:00:27;143.93;;;133.95;;
53036;SDS011;38924;52.134;4.666;2022-10-30T13:07:50;134.40;;;125.03;;
53036;SDS011;38924;52.134;4.666;2022-10-30T13:12:45;139.63;;;130.30;;
53036;SDS011;38924;52.134;4.666;2022-10-30T13:15:23;144.73;;;135.07;;
53036;SDS011;38924;52.134;4.666;2022-10-30T13:17:50;155.77;;;145.60;;
53036;SDS011;38924;52.134;4.666;2022-10-30T13:20:16;148.07;;;138.10;;
53036;SDS011;38924;52.134;4.666;2022-10-30T13:22:45;144.73;;;135.00;;
53036;SDS011;38924;52.134;4.666;2022-10-30T13:27:41;120.63;;;112.40;;
53036;SDS011;38924;52.134;4.666;2022-10-30T13:30:18;130.05;;;120.97;;
53036;SDS011;38924;52.134;4.666;2022-10-30T13:32:57;135.95;;;126.80;;
53036;SDS011;38924;52.134;4.666;2022-10-30T13:48:07;116.95;;;108.45;;
53036;SDS011;38924;52.134;4.666;2022-10-30T13:50:38;133.75;;;124.85;;
53036;SDS011;38924;52.134;4.666;2022-10-30T13:53:10;141.10;;;131.10;;
53036;SDS011;38924;52.134;4.666;2022-10-30T13:55:37;124.35;;;115.68;;
53036;SDS011;38924;52.134;4.666;2022-10-30T13:58:10;143.48;;;133.95;;
53036;SDS011;38924;52.134;4.666;2022-10-30T14:03:25;136.30;;;126.65;;
53036;SDS011;38924;52.134;4.666;2022-10-30T14:06:14;192.82;;;173.98;;
53036;SDS011;38924;52.134;4.666;2022-10-30T14:11:36;122.85;;;114.45;;
53036;SDS011;38924;52.134;4.666;2022-10-30T14:19:33;138.25;;;129.10;;
53036;SDS011;38924;52.134;4.666;2022-10-30T14:22:24;118.10;;;110.15;;
53036;SDS011;38924;52.134;4.666;2022-10-30T14:24:50;114.50;;;106.43;;
53036;SDS011;38924;52.134;4.666;2022-10-30T14:27:28;111.32;;;103.28;;
53036;SDS011;38924;52.134;4.666;2022-10-30T14:29:54;126.43;;;117.45;;
53036;SDS011;38924;52.134;4.666;2022-10-30T14:37:53;115.85;;;107.75;;
53036;SDS011;38924;52.134;4.666;2022-10-30T14:42:50;86.80;;;80.22;;
53036;SDS011;38924;52.134;4.666;2022-10-30T14:45:26;105.78;;;98.07;;
53036;SDS011;38924;52.134;4.666;2022-10-30T14:48:06;115.53;;;105.90;;
53036;SDS011;38924;52.134;4.666;2022-10-30T14:50:51;96.40;;;88.75;;
53036;SDS011;38924;52.134;4.666;2022-10-30T14:58:34;94.07;;;87.07;;
53036;SDS011;38924;52.134;4.666;2022-10-30T15:06:16;94.55;;;87.20;;
53036;SDS011;38924;52.134;4.666;2022-10-30T15:13:58;85.30;;;78.65;;
53036;SDS011;38924;52.134;4.666;2022-10-30T15:16:25;79.70;;;73.68;;
53036;SDS011;38924;52.134;4.666;2022-10-30T15:18:54;78.07;;;72.53;;
53036;SDS011;38924;52.134;4.666;2022-10-30T15:21:21;84.10;;;77.72;;
53036;SDS011;38924;52.134;4.666;2022-10-30T15:23:50;70.78;;;65.15;;
53036;SDS011;38924;52.134;4.666;2022-10-30T15:26:21;83.18;;;76.28;;
53036;SDS011;38924;52.134;4.666;2022-10-30T15:28:50;83.88;;;77.57;;
53036;SDS011;38924;52.134;4.666;2022-10-30T15:33:42;80.88;;;74.80;;
53036;SDS011;38924;52.134;4.666;2022-10-30T15:36:18;79.90;;;74.60;;
53036;SDS011;38924;52.134;4.666;2022-10-30T15:38:43;76.35;;;69.78;;
53036;SDS011;38924;52.134;4.666;2022-10-30T15:41:09;77.60;;;71.60;;
53036;SDS011;38924;52.134;4.666;2022-10-30T15:43:36;70.75;;;65.40;;
53036;SDS011;38924;52.134;4.666;2022-10-30T15:46:09;74.75;;;69.38;;
53036;SDS011;38924;52.134;4.666;2022-10-30T15:48:35;72.88;;;67.20;;
53036;SDS011;38924;52.134;4.666;2022-10-30T15:51:04;70.75;;;65.25;;
53036;SDS011;38924;52.134;4.666;2022-10-30T15:53:49;71.38;;;65.75;;
53036;SDS011;38924;52.134;4.666;2022-10-30T15:56:28;68.30;;;63.03;;
53036;SDS011;38924;52.134;4.666;2022-10-30T15:58:56;67.30;;;62.50;;
53036;SDS011;38924;52.134;4.666;2022-10-30T16:01:28;74.15;;;68.28;;
53036;SDS011;38924;52.134;4.666;2022-10-30T16:03:54;72.28;;;67.07;;
53036;SDS011;38924;52.134;4.666;2022-10-30T16:06:22;75.45;;;68.95;;
53036;SDS011;38924;52.134;4.666;2022-10-30T16:08:48;68.55;;;63.60;;
53036;SDS011;38924;52.134;4.666;2022-10-30T16:11:14;71.65;;;66.20;;
53036;SDS011;38924;52.134;4.666;2022-10-30T16:13:40;75.43;;;69.82;;
53036;SDS011;38924;52.134;4.666;2022-10-30T16:16:06;73.20;;;67.65;;
53036;SDS011;38924;52.134;4.666;2022-10-30T16:18:36;68.15;;;62.78;;
53036;SDS011;38924;52.134;4.666;2022-10-30T16:21:04;67.95;;;62.67;;
53036;SDS011;38924;52.134;4.666;2022-10-30T16:23:36;73.35;;;67.53;;
53036;SDS011;38924;52.134;4.666;2022-10-30T16:26:02;69.07;;;64.15;;
53036;SDS011;38924;52.134;4.666;2022-10-30T16:28:28;69.95;;;64.53;;
53036;SDS011;38924;52.134;4.666;2022-10-30T16:31:01;66.63;;;61.58;;
53036;SDS011;38924;52.134;4.666;2022-10-30T16:33:28;68.05;;;63.00;;
53036;SDS011;38924;52.134;4.666;2022-10-30T16:35:57;69.10;;;64.07;;
53036;SDS011;38924;52.134;4.666;2022-10-30T16:38:25;69.18;;;64.22;;